Weather at Hemet Ryan Airport

Public forecast

Using degrees Fahrenheit for public forecast. Weather courtesy of forecast.io.

Closest aviation weather report (METAR) to Hemet Ryan Airport

Closest report is French Valley Airport, 10.9 nm (20.3 km) SSW. Retrieved UTC (0 seconds ago):

Closest aviation forecast (TAF) to Hemet Ryan Airport

Closest forecast is March Air Reserve Base, 14.7 nm (27.2 km) NW. Retrieved 2021/07/26 12:18 UTC (2 hours ago):

TAF TAF KRIV 261210Z 2612/2718 30006KT 9999 VCSH SCT080 BKN120 BKN200 QNH2993INS TS OMTNS SE TEMPO 2612/2620 VRB12G20KT 9000 -TSRA FEW050 BKN080 OVC012CB BECMG 2619/2620 32009KT 9999 NSW FEW100 SCT120 BKN200 QNH2992INS TS OMTNS NE TEMPO 2622/2702 32012G18KT BECMG 2702/2703 30006KT 9999 NSW SCT100 BKN180 QNH2995INS BECMG 2706/2707 VRB04KT 9999 SCT100 QNH2999INS BECMG 2713/2714 VRB04KT 9999 FEW120 QNH2996INS TX31/2622Z TN20/2613Z